Ds Blue Wave — A8YK2 — position and weather

sailwx.info

Track history (hours):
 
Tides and Currents Weather Stations Pressure Air Temp Water Temp Dewpoint Dewpoint Depression Visibility Wind Speed Wind Dir Waves Ship Positions

Ds Blue Wave

Last reported at 2017-Mar-24 20:30 UTC. Time now 2017-Mar-25 23:46 UTC.
Position N 31°23' E 121°35'.

Length 129 m; draft 6.3 m.

Type: Cargo ship. MMSI: 636092200.

Date/timePositionNaut miles runAvg speedWind from/ knotsBaromVisibWave heightAir tempDewpointWater temp
2017-Mar-24 20:30N 31°23' E 121°35'0 0.0
2017-Mar-24 18:30N 31°23' E 121°35'  
2017-Mar-22 05:23N 33°43' E 132°13'1214.0
2017-Mar-22 04:33N 33°47' E 132°26'1514.1
2017-Mar-22 03:28N 33°56' E 132°41'12013.2
2017-Mar-21 18:25N 34°37' E 134°57'1214.2
2017-Mar-21 17:33N 34°36' E 135°12'6 5.3
2017-Mar-21 16:29N 34°41' E 135°15'0 0.0
2017-Mar-21 15:17N 34°41' E 135°15'0 0.0
2017-Mar-21 14:29N 34°41' E 135°15'0 0.0
2017-Mar-21 13:29N 34°41' E 135°15'0 0.0
2017-Mar-21 12:23N 34°41' E 135°15'0 0.0
2017-Mar-21 11:29N 34°41' E 135°15'3 3.1
2017-Mar-21 10:33N 34°38' E 135°17'6 6.0
2017-Mar-21 09:33N 34°39' E 135°24'0 0.0
2017-Mar-21 08:21N 34°39' E 135°24'0 0.0
2017-Mar-21 06:27N 34°39' E 135°24'0 0.0
2017-Mar-21 04:15N 34°39' E 135°24'0 0.0
2017-Mar-21 00:15N 34°39' E 135°24'0 0.0
2017-Mar-20 23:21N 34°39' E 135°24'0 0.0
2017-Mar-20 22:12N 34°39' E 135°24'2 2.3
2017-Mar-20 21:33N 34°38' E 135°23'2 1.7
2017-Mar-20 20:28N 34°37' E 135°21'0 0.0
2017-Mar-20 19:28N 34°37' E 135°21'0 0.0
2017-Mar-20 18:28N 34°37' E 135°21'0 0.0
2017-Mar-20 17:28N 34°37' E 135°21'0 0.0
2017-Mar-20 16:22N 34°37' E 135°21'0 0.1
2017-Mar-20 15:28N 34°37' E 135°21'0 0.0
2017-Mar-20 14:28N 34°37' E 135°21'0 0.1
2017-Mar-20 13:22N 34°37' E 135°21'0 0.1
2017-Mar-20 11:22N 34°37' E 135°21'0 0.0
2017-Mar-20 08:22N 34°37' E 135°21'0 0.0
2017-Mar-20 07:28N 34°37' E 135°21'3 1.3
2017-Mar-20 05:33N 34°36' E 135°18'13411.2
2017-Mar-19 17:33N 33°57' E 132°43'38311.8
2017-Mar-18 09:12N 32°03' E 125°27'17012.3
2017-Mar-17 19:27N 31°01' E 122°22'1011.2
2017-Mar-17 18:33N 31°03' E 122°11'1010.2
2017-Mar-17 17:33N 31°06' E 121°59'1110.6
2017-Mar-17 16:33N 31°12' E 121°49'1312.5
2017-Mar-17 15:33N 31°21' E 121°39'4 4.0
2017-Mar-17 14:33N 31°22' E 121°35'0 0.0
2017-Mar-17 13:33N 31°22' E 121°35'0 0.0
2017-Mar-17 12:33N 31°22' E 121°35'0 0.0
2017-Mar-17 10:15N 31°22' E 121°35'0 0.0
2017-Mar-17 09:30N 31°22' E 121°35'0 0.0
2017-Mar-17 08:33N 31°22' E 121°35'0 0.0
2017-Mar-17 07:30N 31°22' E 121°35'0 0.0
2017-Mar-17 06:30N 31°22' E 121°35'0 0.0
2017-Mar-17 05:33N 31°22' E 121°35'0 0.0
2017-Mar-17 04:33N 31°22' E 121°35'0 0.0
2017-Mar-17 03:33N 31°22' E 121°35'0 0.0
2017-Mar-17 02:33N 31°22' E 121°35'0 0.0
2017-Mar-17 01:24N 31°22' E 121°35'0 0.0
2017-Mar-17 00:33N 31°22' E 121°35'3 2.7
2017-Mar-16 23:33N 31°22' E 121°38'8 7.7
2017-Mar-16 22:33N 31°18' E 121°46'8 7.6
2017-Mar-16 21:33N 31°16' E 121°54'9 8.9
2017-Mar-16 20:33N 31°14' E 122°05'  
Track history (hours):
 
Tides and Currents Weather Stations Pressure Air Temp Water Temp Dewpoint Dewpoint Depression Visibility Wind Speed Wind Dir Waves Ship Positions

Ds Blue Wave

Last reported at 2017-Mar-24 20:30 UTC. Time now 2017-Mar-25 23:46 UTC.
Position N 31°23' E 121°35'.

Length 129 m; draft 6.3 m.

Type: Cargo ship. MMSI: 636092200.

Date/timePositionNaut miles runAvg speedWind from/ knotsBaromVisibWave heightAir tempDewpointWater temp
2017-Mar-24 20:30N 31°23' E 121°35'0 0.0
2017-Mar-24 18:30N 31°23' E 121°35'  
2017-Mar-22 05:23N 33°43' E 132°13'1214.0
2017-Mar-22 04:33N 33°47' E 132°26'1514.1
2017-Mar-22 03:28N 33°56' E 132°41'12013.2
2017-Mar-21 18:25N 34°37' E 134°57'1214.2
2017-Mar-21 17:33N 34°36' E 135°12'6 5.3
2017-Mar-21 16:29N 34°41' E 135°15'0 0.0
2017-Mar-21 15:17N 34°41' E 135°15'0 0.0
2017-Mar-21 14:29N 34°41' E 135°15'0 0.0
2017-Mar-21 13:29N 34°41' E 135°15'0 0.0
2017-Mar-21 12:23N 34°41' E 135°15'0 0.0
2017-Mar-21 11:29N 34°41' E 135°15'3 3.1
2017-Mar-21 10:33N 34°38' E 135°17'6 6.0
2017-Mar-21 09:33N 34°39' E 135°24'0 0.0
2017-Mar-21 08:21N 34°39' E 135°24'0 0.0
2017-Mar-21 06:27N 34°39' E 135°24'0 0.0
2017-Mar-21 04:15N 34°39' E 135°24'0 0.0
2017-Mar-21 00:15N 34°39' E 135°24'0 0.0
2017-Mar-20 23:21N 34°39' E 135°24'0 0.0
2017-Mar-20 22:12N 34°39' E 135°24'2 2.3
2017-Mar-20 21:33N 34°38' E 135°23'2 1.7
2017-Mar-20 20:28N 34°37' E 135°21'0 0.0
2017-Mar-20 19:28N 34°37' E 135°21'0 0.0
2017-Mar-20 18:28N 34°37' E 135°21'0 0.0
2017-Mar-20 17:28N 34°37' E 135°21'0 0.0
2017-Mar-20 16:22N 34°37' E 135°21'0 0.1
2017-Mar-20 15:28N 34°37' E 135°21'0 0.0
2017-Mar-20 14:28N 34°37' E 135°21'0 0.1
2017-Mar-20 13:22N 34°37' E 135°21'0 0.1
2017-Mar-20 11:22N 34°37' E 135°21'0 0.0
2017-Mar-20 08:22N 34°37' E 135°21'0 0.0
2017-Mar-20 07:28N 34°37' E 135°21'3 1.3
2017-Mar-20 05:33N 34°36' E 135°18'13411.2
2017-Mar-19 17:33N 33°57' E 132°43'38311.8
2017-Mar-18 09:12N 32°03' E 125°27'17012.3
2017-Mar-17 19:27N 31°01' E 122°22'1011.2
2017-Mar-17 18:33N 31°03' E 122°11'1010.2
2017-Mar-17 17:33N 31°06' E 121°59'1110.6
2017-Mar-17 16:33N 31°12' E 121°49'1312.5
2017-Mar-17 15:33N 31°21' E 121°39'4 4.0
2017-Mar-17 14:33N 31°22' E 121°35'0 0.0
2017-Mar-17 13:33N 31°22' E 121°35'0 0.0
2017-Mar-17 12:33N 31°22' E 121°35'0 0.0
2017-Mar-17 10:15N 31°22' E 121°35'0 0.0
2017-Mar-17 09:30N 31°22' E 121°35'0 0.0
2017-Mar-17 08:33N 31°22' E 121°35'0 0.0
2017-Mar-17 07:30N 31°22' E 121°35'0 0.0
2017-Mar-17 06:30N 31°22' E 121°35'0 0.0
2017-Mar-17 05:33N 31°22' E 121°35'0 0.0
2017-Mar-17 04:33N 31°22' E 121°35'0 0.0
2017-Mar-17 03:33N 31°22' E 121°35'0 0.0
2017-Mar-17 02:33N 31°22' E 121°35'0 0.0
2017-Mar-17 01:24N 31°22' E 121°35'0 0.0
2017-Mar-17 00:33N 31°22' E 121°35'3 2.7
2017-Mar-16 23:33N 31°22' E 121°38'8 7.7
2017-Mar-16 22:33N 31°18' E 121°46'8 7.6
2017-Mar-16 21:33N 31°16' E 121°54'9 8.9
2017-Mar-16 20:33N 31°14' E 122°05'  

Dump ship's entire track history